createdAt,value
2019-05-17T00:00:00.436Z,99.90
2019-05-17T00:01:16.504Z,99.90
2019-05-17T00:02:29.501Z,99.90
2019-05-17T00:03:42.945Z,99.90
2019-05-17T00:04:56.581Z,99.90
2019-05-17T00:06:10.033Z,99.90
2019-05-17T00:07:23.681Z,99.90
2019-05-17T00:08:38.373Z,99.90
2019-05-17T00:09:52.561Z,99.90
2019-05-17T00:11:06.676Z,99.90
2019-05-17T00:12:20.541Z,99.90
2019-05-17T00:13:34.065Z,99.90
2019-05-17T00:14:48.175Z,99.90
2019-05-17T00:16:01.628Z,99.90
2019-05-17T00:17:17.272Z,99.90
2019-05-17T00:18:30.439Z,99.90
2019-05-17T00:19:46.374Z,99.90
2019-05-17T00:20:59.501Z,99.90
2019-05-17T00:22:13.725Z,99.90
2019-05-17T00:23:27.162Z,99.90
2019-05-17T00:24:40.806Z,99.90
2019-05-17T00:25:56.335Z,99.90
2019-05-17T00:27:09.627Z,99.90
2019-05-17T00:28:23.081Z,99.90
2019-05-17T00:29:37.217Z,99.90
2019-05-17T00:30:50.885Z,99.90
2019-05-17T00:32:06.463Z,99.90
2019-05-17T00:33:19.784Z,99.90
2019-05-17T00:34:33.439Z,99.90
2019-05-17T00:35:47.053Z,99.90
2019-05-17T00:37:00.717Z,99.90
2019-05-17T00:38:16.725Z,99.90
2019-05-17T00:39:29.533Z,99.90
2019-05-17T00:40:42.982Z,99.90
2019-05-17T00:41:57.299Z,99.90
2019-05-17T00:43:10.869Z,99.90
2019-05-17T00:44:27.150Z,99.90
2019-05-17T00:45:40.421Z,99.90
2019-05-17T00:46:54.111Z,99.90
2019-05-17T00:48:07.593Z,99.90
2019-05-17T00:49:21.229Z,99.90
2019-05-17T00:50:37.938Z,99.90
2019-05-17T00:51:52.568Z,99.90
2019-05-17T00:53:07.222Z,99.90
2019-05-17T00:54:23.172Z,99.90
2019-05-17T00:55:36.726Z,99.90
2019-05-17T00:56:50.453Z,99.90
2019-05-17T00:58:06.668Z,99.90
2019-05-17T00:59:20.741Z,99.90
2019-05-17T01:00:37.250Z,99.90
2019-05-17T01:01:50.386Z,99.90
2019-05-17T01:03:07.063Z,99.90
2019-05-17T01:04:20.632Z,99.90
2019-05-17T01:05:36.661Z,99.90
2019-05-17T01:06:49.706Z,99.90
2019-05-17T01:08:03.164Z,99.90
2019-05-17T01:09:17.152Z,99.90
2019-05-17T01:10:30.687Z,99.90
2019-05-17T01:11:44.320Z,99.90
2019-05-17T01:12:57.788Z,99.90
2019-05-17T01:14:11.991Z,99.90
2019-05-17T01:15:27.347Z,99.90
2019-05-17T01:16:40.865Z,99.90
2019-05-17T01:17:56.265Z,99.90
2019-05-17T01:19:09.753Z,99.90
2019-05-17T01:20:23.209Z,99.90
2019-05-17T01:21:38.062Z,99.90
2019-05-17T01:22:51.521Z,99.90
2019-05-17T01:24:06.834Z,99.90
2019-05-17T01:25:20.572Z,99.90
2019-05-17T01:26:34.217Z,99.90
2019-05-17T01:27:49.041Z,99.90
2019-05-17T01:29:02.679Z,99.90
2019-05-17T01:30:17.525Z,99.90
2019-05-17T01:31:32.566Z,99.90
2019-05-17T01:32:46.542Z,99.90
2019-05-17T01:34:00.341Z,99.90
2019-05-17T01:35:13.797Z,99.90
2019-05-17T01:36:27.442Z,99.90
2019-05-17T01:37:42.514Z,99.90
2019-05-17T01:38:57.680Z,99.90
2019-05-17T01:40:11.302Z,99.90
2019-05-17T01:41:26.668Z,99.90
2019-05-17T01:42:40.279Z,99.90
2019-05-17T01:43:54.009Z,99.90
2019-05-17T01:45:08.397Z,99.90
2019-05-17T01:46:23.414Z,99.90
2019-05-17T01:47:37.840Z,99.90
2019-05-17T01:48:51.496Z,99.90
2019-05-17T01:50:08.250Z,99.90
2019-05-17T01:51:21.969Z,99.90
2019-05-17T01:52:36.940Z,99.90
2019-05-17T01:53:50.840Z,99.90
2019-05-17T01:55:06.749Z,99.90
2019-05-17T01:56:20.448Z,99.90
2019-05-17T01:57:36.765Z,99.90
2019-05-17T01:58:49.824Z,99.90
2019-05-17T02:00:07.953Z,99.90
2019-05-17T02:01:21.594Z,99.90
2019-05-17T02:02:39.165Z,99.90
2019-05-17T02:03:53.577Z,99.90
2019-05-17T02:05:07.789Z,99.90
2019-05-17T02:06:21.435Z,99.90
2019-05-17T02:07:37.158Z,99.90
2019-05-17T02:08:50.324Z,99.90
2019-05-17T02:10:07.592Z,99.90
2019-05-17T02:11:21.252Z,99.90
2019-05-17T02:12:37.022Z,99.90
2019-05-17T02:13:50.091Z,99.90
2019-05-17T02:15:06.923Z,99.90
2019-05-17T02:16:20.708Z,99.90
2019-05-17T02:17:37.334Z,99.90
2019-05-17T02:18:51.375Z,99.90
2019-05-17T02:20:07.546Z,99.90
2019-05-17T02:21:21.183Z,99.90
2019-05-17T02:22:36.804Z,99.90
2019-05-17T02:23:50.609Z,99.90
2019-05-17T02:25:09.303Z,99.90
2019-05-17T02:26:22.929Z,99.90
2019-05-17T02:27:41.190Z,99.90
2019-05-17T02:28:52.084Z,99.90
2019-05-17T02:30:07.348Z,99.90
2019-05-17T02:31:24.548Z,99.90
2019-05-17T02:32:36.242Z,99.90
2019-05-17T02:33:53.320Z,99.90
2019-05-17T02:35:05.142Z,99.90
2019-05-17T02:36:22.605Z,99.90
2019-05-17T02:37:34.845Z,99.90
2019-05-17T02:38:48.486Z,99.90
2019-05-17T02:40:07.268Z,99.90
2019-05-17T02:41:17.304Z,99.90
2019-05-17T02:42:33.270Z,99.90
2019-05-17T02:43:47.356Z,99.90
2019-05-17T02:45:03.225Z,99.90
2019-05-17T02:46:16.951Z,99.90
2019-05-17T02:47:33.349Z,99.90
2019-05-17T02:48:45.827Z,99.90
2019-05-17T02:50:00.901Z,99.90
2019-05-17T02:51:14.544Z,99.90
2019-05-17T02:52:28.561Z,99.90
2019-05-17T02:53:43.046Z,99.90
2019-05-17T02:54:56.643Z,99.90
2019-05-17T02:56:13.409Z,99.90
2019-05-17T02:57:26.101Z,99.90
2019-05-17T02:58:39.802Z,99.90
2019-05-17T02:59:53.283Z,99.90
2019-05-17T03:01:06.921Z,99.90
2019-05-17T03:02:26.659Z,99.90
2019-05-17T03:03:35.726Z,99.90
2019-05-17T03:04:52.396Z,99.90
2019-05-17T03:06:04.590Z,99.90
2019-05-17T03:07:18.094Z,99.90
2019-05-17T03:08:34.023Z,99.90
2019-05-17T03:09:46.987Z,99.90
2019-05-17T03:11:03.289Z,99.90
2019-05-17T03:12:15.794Z,99.90
2019-05-17T03:13:32.860Z,99.90
2019-05-17T03:14:45.174Z,99.90
2019-05-17T03:15:58.821Z,99.90
2019-05-17T03:17:13.989Z,99.90
2019-05-17T03:18:27.694Z,99.90
2019-05-17T03:19:43.579Z,99.90
2019-05-17T03:20:56.670Z,99.90
2019-05-17T03:22:12.919Z,99.90
2019-05-17T03:23:25.546Z,99.90
2019-05-17T03:24:39.784Z,99.90
2019-05-17T03:25:54.737Z,99.90
2019-05-17T03:27:08.256Z,99.90
2019-05-17T03:28:23.610Z,99.90
2019-05-17T03:29:37.087Z,99.90
2019-05-17T03:30:55.571Z,99.90
2019-05-17T03:32:08.303Z,99.90
2019-05-17T03:33:26.232Z,99.90
2019-05-17T03:34:37.639Z,99.90
2019-05-17T03:35:56.444Z,99.90
2019-05-17T03:37:07.457Z,99.90
2019-05-17T03:38:22.854Z,99.90
2019-05-17T03:39:36.415Z,99.90
2019-05-17T03:41:11.933Z,99.90
2019-05-17T03:42:05.466Z,99.90
2019-05-17T03:43:19.109Z,99.90
2019-05-17T03:44:33.371Z,99.90
2019-05-17T03:45:47.165Z,99.90
2019-05-17T03:47:02.424Z,99.90
2019-05-17T03:48:15.975Z,99.90
2019-05-17T03:49:29.427Z,99.90
2019-05-17T03:50:43.718Z,99.90
2019-05-17T03:51:57.334Z,99.90
2019-05-17T03:53:13.147Z,99.90
2019-05-17T03:54:26.149Z,99.90
2019-05-17T03:55:42.808Z,99.90
2019-05-17T03:56:55.537Z,99.90
2019-05-17T03:58:12.528Z,99.90
2019-05-17T03:59:25.150Z,99.90
2019-05-17T04:00:38.808Z,99.90
2019-05-17T04:01:53.404Z,99.90
2019-05-17T04:03:07.047Z,99.90
2019-05-17T04:04:22.919Z,99.90
2019-05-17T04:05:36.732Z,99.90
2019-05-17T04:06:52.602Z,99.90
2019-05-17T04:08:08.147Z,99.90
2019-05-17T04:09:22.488Z,99.90
2019-05-17T04:10:36.278Z,99.90
2019-05-17T04:11:49.730Z,99.90
2019-05-17T04:13:04.425Z,99.90
2019-05-17T04:14:18.100Z,99.90
2019-05-17T04:15:32.891Z,99.90
2019-05-17T04:16:46.571Z,99.90
2019-05-17T04:18:03.681Z,99.90
2019-05-17T04:19:16.411Z,99.90
2019-05-17T04:20:32.839Z,99.90
2019-05-17T04:21:45.309Z,99.90
2019-05-17T04:23:03.403Z,99.90
2019-05-17T04:24:15.803Z,99.90
2019-05-17T04:25:29.529Z,99.90
2019-05-17T04:26:43.762Z,99.90
2019-05-17T04:27:57.793Z,99.90
2019-05-17T04:29:13.614Z,99.90
2019-05-17T04:30:26.951Z,99.90
2019-05-17T04:31:43.436Z,99.90
2019-05-17T04:32:55.768Z,99.90
2019-05-17T04:34:13.541Z,99.90
2019-05-17T04:35:28.225Z,99.90
2019-05-17T04:36:43.199Z,99.90
2019-05-17T04:37:57.199Z,99.90
2019-05-17T04:39:13.423Z,99.90
2019-05-17T04:40:25.996Z,99.90
2019-05-17T04:41:46.892Z,99.90
2019-05-17T04:42:54.829Z,99.90
2019-05-17T04:44:08.306Z,99.90
2019-05-17T04:45:22.987Z,99.90
2019-05-17T04:46:36.850Z,99.90
2019-05-17T04:47:52.897Z,99.90
2019-05-17T04:49:05.690Z,99.90
2019-05-17T04:50:19.395Z,99.90
2019-05-17T04:51:32.906Z,99.90
2019-05-17T04:52:48.432Z,99.90
2019-05-17T04:54:03.221Z,99.90
2019-05-17T04:55:17.168Z,99.90
2019-05-17T04:56:33.430Z,99.90
2019-05-17T04:57:46.181Z,99.90
2019-05-17T04:59:03.363Z,99.90
2019-05-17T05:00:16.798Z,99.90
2019-05-17T05:01:33.032Z,99.90
2019-05-17T05:02:45.862Z,99.90
2019-05-17T05:04:03.093Z,99.90
2019-05-17T05:05:18.543Z,99.90
2019-05-17T05:06:32.850Z,99.90
2019-05-17T05:07:46.767Z,99.90
2019-05-17T05:09:02.563Z,99.90
2019-05-17T05:10:15.620Z,99.90
2019-05-17T05:11:29.089Z,99.90
2019-05-17T05:12:43.886Z,99.90
2019-05-17T05:13:57.657Z,99.90
2019-05-17T05:15:12.221Z,99.90
2019-05-17T05:16:25.868Z,99.90
2019-05-17T05:17:42.226Z,99.90
2019-05-17T05:18:56.311Z,99.90
2019-05-17T05:20:12.786Z,99.90
2019-05-17T05:21:25.466Z,99.90
2019-05-17T05:22:42.634Z,99.90
2019-05-17T05:23:55.628Z,99.90
2019-05-17T05:25:09.268Z,99.90
2019-05-17T05:26:22.735Z,99.90
2019-05-17T05:27:36.364Z,99.90
2019-05-17T05:28:49.821Z,99.90
2019-05-17T05:30:03.887Z,99.90
2019-05-17T05:31:17.370Z,99.90
2019-05-17T05:32:31.537Z,99.90
2019-05-17T05:33:45.141Z,99.90
2019-05-17T05:34:58.778Z,99.90
2019-05-17T05:36:12.232Z,99.90
2019-05-17T05:37:25.881Z,99.90
2019-05-17T05:38:39.339Z,99.90
2019-05-17T05:39:54.611Z,99.90
2019-05-17T05:41:08.302Z,99.90
2019-05-17T05:42:22.128Z,99.90
2019-05-17T05:43:35.660Z,99.90
2019-05-17T05:44:52.200Z,99.90
2019-05-17T05:46:05.641Z,99.90
2019-05-17T05:47:19.274Z,99.90
2019-05-17T05:48:32.861Z,99.90
2019-05-17T05:49:46.540Z,99.90
2019-05-17T05:51:03.052Z,99.90
2019-05-17T05:52:15.369Z,99.90
2019-05-17T05:53:28.830Z,99.90
2019-05-17T05:54:43.045Z,99.90
2019-05-17T05:55:56.503Z,99.90
2019-05-17T05:57:12.483Z,99.90
2019-05-17T05:58:25.306Z,99.90
2019-05-17T05:59:38.949Z,99.90
2019-05-17T06:00:53.189Z,99.90
2019-05-17T06:02:07.037Z,99.90
2019-05-17T06:03:22.523Z,99.90
2019-05-17T06:04:36.238Z,99.90
2019-05-17T06:05:49.696Z,99.90
2019-05-17T06:07:03.352Z,99.90
2019-05-17T06:08:16.788Z,99.90
2019-05-17T06:09:31.820Z,99.90
2019-05-17T06:10:45.404Z,99.90
2019-05-17T06:11:59.053Z,99.90
2019-05-17T06:13:13.083Z,99.90
2019-05-17T06:14:27.021Z,99.90
2019-05-17T06:15:42.668Z,99.90
2019-05-17T06:16:55.848Z,99.90
2019-05-17T06:18:09.377Z,99.90
2019-05-17T06:19:23.486Z,99.90
2019-05-17T06:20:36.936Z,99.90
2019-05-17T06:21:52.025Z,99.90
2019-05-17T06:23:05.613Z,99.90
2019-05-17T06:24:19.257Z,99.90
2019-05-17T06:25:34.044Z,99.90
2019-05-17T06:26:49.651Z,99.90
2019-05-17T06:28:03.111Z,99.90
2019-05-17T06:29:16.841Z,99.90
2019-05-17T06:30:32.400Z,99.90
2019-05-17T06:31:45.731Z,99.90
2019-05-17T06:32:59.453Z,99.90
2019-05-17T06:34:14.250Z,99.90
2019-05-17T06:35:27.969Z,99.90
2019-05-17T06:36:42.363Z,99.90
2019-05-17T06:37:56.986Z,99.90
2019-05-17T06:39:11.751Z,99.90
2019-05-17T06:40:25.351Z,99.90
2019-05-17T06:41:39.012Z,99.90
2019-05-17T06:42:52.633Z,99.90
2019-05-17T06:44:06.277Z,99.90
2019-05-17T06:45:21.921Z,99.90
2019-05-17T06:46:35.094Z,99.90
2019-05-17T06:47:48.633Z,99.90
2019-05-17T06:49:03.071Z,99.90
2019-05-17T06:50:17.283Z,99.90
2019-05-17T06:51:31.658Z,99.90
2019-05-17T06:52:45.233Z,99.90
2019-05-17T06:53:58.880Z,99.90
2019-05-17T06:55:13.022Z,99.90
2019-05-17T06:56:26.844Z,99.90
2019-05-17T06:57:42.839Z,99.90
2019-05-17T06:58:55.766Z,99.90
2019-05-17T07:00:13.962Z,99.90
2019-05-17T07:01:25.248Z,99.90
2019-05-17T07:02:40.230Z,99.90
2019-05-17T07:03:54.017Z,99.90
2019-05-17T07:05:09.898Z,99.90
2019-05-17T07:06:25.199Z,99.90
2019-05-17T07:07:40.559Z,99.90
2019-05-17T07:08:54.101Z,99.90
2019-05-17T07:10:07.618Z,99.90
2019-05-17T07:11:21.274Z,99.90
2019-05-17T07:12:34.721Z,99.90
2019-05-17T07:13:49.594Z,99.90
2019-05-17T07:15:03.101Z,99.90
2019-05-17T07:16:19.583Z,99.90
2019-05-17T07:17:32.386Z,99.90
2019-05-17T07:18:46.029Z,99.90
2019-05-17T07:19:59.817Z,99.90
2019-05-17T07:21:13.633Z,99.90
2019-05-17T07:22:29.484Z,99.90
2019-05-17T07:23:42.460Z,99.90
2019-05-17T07:24:55.945Z,99.90
2019-05-17T07:26:12.009Z,99.90
2019-05-17T07:27:37.953Z,99.90
2019-05-17T07:28:42.030Z,99.90
2019-05-17T07:29:55.481Z,99.90
2019-05-17T07:31:10.134Z,99.90
2019-05-17T07:32:23.701Z,99.90
2019-05-17T07:33:39.698Z,99.90
2019-05-17T07:34:52.515Z,99.90
2019-05-17T07:36:06.153Z,99.90
2019-05-17T07:37:20.298Z,99.90
2019-05-17T07:38:33.940Z,99.90
2019-05-17T07:40:00.926Z,99.90
2019-05-17T07:41:03.980Z,99.90
2019-05-17T07:42:19.435Z,99.90
2019-05-17T07:43:32.804Z,99.90
2019-05-17T07:44:46.269Z,99.90
2019-05-17T07:46:00.528Z,99.90
2019-05-17T07:47:14.181Z,99.90
2019-05-17T07:48:31.150Z,99.90
2019-05-17T07:49:44.227Z,99.90
2019-05-17T07:50:59.379Z,99.90
2019-05-17T07:52:12.998Z,99.90
2019-05-17T07:53:26.658Z,99.90
2019-05-17T07:54:40.385Z,99.90
2019-05-17T07:55:54.024Z,99.90
2019-05-17T07:57:10.263Z,99.90
2019-05-17T07:58:23.133Z,99.90
2019-05-17T07:59:36.588Z,99.90
2019-05-17T08:00:51.326Z,99.90
2019-05-17T08:02:05.049Z,99.60
2019-05-17T08:03:20.945Z,99.70
2019-05-17T08:04:33.887Z,99.40
2019-05-17T08:05:47.600Z,98.20
2019-05-17T08:07:01.066Z,99.90
2019-05-17T08:08:14.701Z,99.30
2019-05-17T08:09:30.097Z,98.80
2019-05-17T08:10:43.609Z,98.70
2019-05-17T08:11:59.595Z,98.30
2019-05-17T08:13:25.680Z,97.60
2019-05-17T08:14:32.909Z,98.50
2019-05-17T08:15:43.302Z,98.00
2019-05-17T08:16:56.756Z,98.20
2019-05-17T08:18:11.067Z,97.30
2019-05-17T08:19:24.764Z,98.30
2019-05-17T08:20:40.095Z,98.70
2019-05-17T08:21:53.802Z,97.60
2019-05-17T08:23:07.488Z,97.00
2019-05-17T08:24:21.275Z,96.70
2019-05-17T08:25:48.745Z,96.20
2019-05-17T08:26:50.294Z,96.00
2019-05-17T08:28:03.993Z,95.80
2019-05-17T08:29:17.445Z,95.00
2019-05-17T08:30:31.119Z,95.20
2019-05-17T08:31:44.566Z,95.30
2019-05-17T08:33:00.762Z,96.80
2019-05-17T08:34:13.370Z,95.80
2019-05-17T08:35:27.002Z,96.80
2019-05-17T08:36:40.708Z,95.00
2019-05-17T08:37:54.392Z,94.40
2019-05-17T08:39:10.125Z,94.30
2019-05-17T08:40:23.202Z,94.70
2019-05-17T08:41:36.655Z,94.60
2019-05-17T08:42:52.030Z,94.30
2019-05-17T08:44:05.480Z,95.50
2019-05-17T08:45:20.581Z,94.50
2019-05-17T08:46:34.250Z,95.30
2019-05-17T08:47:49.865Z,94.90
2019-05-17T08:49:03.097Z,94.90
2019-05-17T08:50:16.753Z,97.60
2019-05-17T08:51:30.619Z,95.50
2019-05-17T08:52:44.331Z,94.00
2019-05-17T08:53:59.856Z,93.50
2019-05-17T08:55:13.153Z,92.90
2019-05-17T08:56:26.614Z,93.30
2019-05-17T08:57:40.425Z,95.60
2019-05-17T08:58:54.017Z,95.40
2019-05-17T09:00:10.605Z,95.70
2019-05-17T09:01:24.182Z,94.10
